createdAt,value
2023-09-23T00:01:07.053Z,101515.27
2023-09-23T00:03:38.923Z,101517.93
2023-09-23T00:06:10.306Z,101514.53
2023-09-23T00:08:38.688Z,101510.56
2023-09-23T00:11:09.763Z,101508.89
2023-09-23T00:13:38.397Z,101512.67
2023-09-23T00:16:16.949Z,101516.34
2023-09-23T00:18:46.237Z,101515.98
2023-09-23T00:21:14.642Z,101510.58
2023-09-23T00:23:42.857Z,101506.41
2023-09-23T00:26:13.012Z,101503.55
2023-09-23T00:28:41.935Z,101501.30
2023-09-23T00:31:16.169Z,101497.09
2023-09-23T00:33:45.472Z,101496.84
2023-09-23T00:36:13.841Z,101502.75
2023-09-23T00:38:42.024Z,101507.80
2023-09-23T00:41:10.389Z,101508.42
2023-09-23T00:43:39.426Z,101511.96
2023-09-23T00:46:08.530Z,101509.77
2023-09-23T00:48:44.019Z,101512.56
2023-09-23T00:51:13.300Z,101514.14
2023-09-23T00:53:43.649Z,101518.72
2023-09-23T00:56:13.589Z,101517.91
2023-09-23T00:58:44.426Z,101517.70
2023-09-23T01:01:15.736Z,101518.40
2023-09-23T01:03:45.076Z,101515.23
2023-09-23T01:06:18.155Z,101509.54
2023-09-23T01:08:49.002Z,101509.08
2023-09-23T01:11:20.542Z,101506.26
2023-09-23T01:13:52.750Z,101506.25
2023-09-23T01:16:23.416Z,101505.02
2023-09-23T01:18:52.427Z,101508.96
2023-09-23T01:21:22.715Z,101510.39
2023-09-23T01:23:51.533Z,101516.76
2023-09-23T01:26:20.257Z,101510.53
2023-09-23T01:28:50.598Z,101505.25
2023-09-23T01:31:22.970Z,101502.03
2023-09-23T01:33:52.363Z,101504.11
2023-09-23T01:36:20.984Z,101507.61
2023-09-23T01:38:52.595Z,101506.00
2023-09-23T01:41:20.859Z,101500.07
2023-09-23T01:43:50.823Z,101493.43
2023-09-23T01:46:21.343Z,101488.10
2023-09-23T01:48:49.791Z,101491.15
2023-09-23T01:51:19.182Z,101495.36
2023-09-23T01:53:47.547Z,101499.02
2023-09-23T01:56:15.710Z,101501.43
2023-09-23T01:58:46.160Z,101495.15
2023-09-23T02:01:14.853Z,101495.52
2023-09-23T02:03:43.779Z,101499.14
2023-09-23T02:06:12.491Z,101501.73
2023-09-23T02:08:40.673Z,101508.05
2023-09-23T02:11:08.857Z,101509.74
2023-09-23T02:13:41.901Z,101513.17
2023-09-23T02:16:11.380Z,101513.61
2023-09-23T02:18:41.200Z,101512.65
2023-09-23T02:21:10.309Z,101511.81
2023-09-23T02:23:38.526Z,101513.10
2023-09-23T02:26:06.664Z,101509.55
2023-09-23T02:28:35.170Z,101506.48
2023-09-23T02:31:03.449Z,101513.88
2023-09-23T02:33:32.719Z,101514.86
2023-09-23T02:36:02.170Z,101519.11
2023-09-23T02:38:32.573Z,101514.29
2023-09-23T02:41:03.990Z,101516.41
2023-09-23T02:43:32.141Z,101518.48
2023-09-23T02:46:03.151Z,101521.34
2023-09-23T02:48:32.687Z,101518.43
2023-09-23T02:51:02.336Z,101519.73
2023-09-23T02:53:32.197Z,101522.42
2023-09-23T02:56:05.506Z,101518.95
2023-09-23T02:58:34.219Z,101520.54
2023-09-23T03:01:06.268Z,101519.36
2023-09-23T03:03:35.394Z,101519.52
2023-09-23T03:06:08.521Z,101516.23
2023-09-23T03:08:39.016Z,101520.31
2023-09-23T03:11:11.237Z,101515.86
2023-09-23T03:13:40.820Z,101516.15
2023-09-23T03:16:14.117Z,101517.06
2023-09-23T03:19:01.535Z,101519.96
2023-09-23T03:21:29.933Z,101524.15
2023-09-23T03:24:01.166Z,101523.84
2023-09-23T03:26:29.468Z,101526.89
2023-09-23T03:28:59.015Z,101526.15
2023-09-23T03:31:27.344Z,101528.04
2023-09-23T03:33:57.241Z,101528.48
2023-09-23T03:36:26.769Z,101531.45
2023-09-23T03:38:55.179Z,101534.32
2023-09-23T03:41:23.226Z,101532.70
2023-09-23T03:43:51.447Z,101534.23
2023-09-23T03:46:19.848Z,101532.02
2023-09-23T03:48:48.369Z,101538.54
2023-09-23T03:51:17.077Z,101542.04
2023-09-23T03:53:45.923Z,101542.35
2023-09-23T03:56:14.398Z,101541.70
2023-09-23T03:58:45.094Z,101540.79
2023-09-23T04:01:16.854Z,101542.42
2023-09-23T04:03:45.264Z,101538.81
2023-09-23T04:06:13.533Z,101544.67
2023-09-23T04:08:42.254Z,101551.45
2023-09-23T04:11:10.839Z,101555.10
2023-09-23T04:13:39.652Z,101553.45
2023-09-23T04:16:07.867Z,101554.20
2023-09-23T04:18:36.261Z,101552.33
2023-09-23T04:21:04.865Z,101556.54
2023-09-23T04:23:32.986Z,101561.77
2023-09-23T04:26:04.167Z,101558.89
2023-09-23T04:28:35.550Z,101556.98
2023-09-23T04:31:04.672Z,101560.61
2023-09-23T04:33:33.166Z,101562.66
2023-09-23T04:36:01.309Z,101563.84
2023-09-23T04:38:29.560Z,101562.88
2023-09-23T04:40:57.886Z,101561.88
2023-09-23T04:43:27.403Z,101566.95
2023-09-23T04:45:55.751Z,101567.65
2023-09-23T04:48:26.441Z,101571.52
2023-09-23T04:50:58.063Z,101578.96
2023-09-23T04:53:28.529Z,101588.81
2023-09-23T04:55:56.849Z,101590.91
2023-09-23T04:58:25.043Z,101597.41
2023-09-23T05:00:53.972Z,101598.13
2023-09-23T05:03:24.626Z,101597.25
2023-09-23T05:05:52.893Z,101596.56
2023-09-23T05:08:21.240Z,101600.54
2023-09-23T05:10:51.089Z,101600.85
2023-09-23T05:13:19.471Z,101607.88
2023-09-23T05:15:47.631Z,101611.13
2023-09-23T05:18:16.020Z,101611.54
2023-09-23T05:20:44.037Z,101611.42
2023-09-23T05:23:12.437Z,101608.89
2023-09-23T05:25:42.766Z,101612.08
2023-09-23T05:28:11.923Z,101613.19
2023-09-23T05:30:40.424Z,101611.52
2023-09-23T05:33:10.174Z,101612.86
2023-09-23T05:35:39.616Z,101619.16
2023-09-23T05:38:11.155Z,101618.79
2023-09-23T05:40:39.448Z,101622.66
2023-09-23T05:43:07.972Z,101624.65
2023-09-23T05:45:37.076Z,101626.82
2023-09-23T05:48:07.201Z,101632.29
2023-09-23T05:50:36.722Z,101638.38
2023-09-23T05:53:05.498Z,101641.37
2023-09-23T05:55:34.553Z,101641.10
2023-09-23T05:58:03.358Z,101637.82
2023-09-23T06:00:31.821Z,101643.36
2023-09-23T06:03:00.417Z,101648.34
2023-09-23T06:05:29.136Z,101651.27
2023-09-23T06:07:57.560Z,101651.77
2023-09-23T06:10:25.927Z,101648.92
2023-09-23T06:12:54.144Z,101650.98
2023-09-23T06:15:22.251Z,101658.40
2023-09-23T06:17:50.735Z,101665.27
2023-09-23T06:20:19.153Z,101675.20
2023-09-23T06:22:48.755Z,101674.67
2023-09-23T06:25:17.534Z,101669.75
2023-09-23T06:27:46.257Z,101672.77
2023-09-23T06:30:16.939Z,101675.19
2023-09-23T06:32:46.250Z,101673.55
2023-09-23T06:35:15.850Z,101671.69
2023-09-23T06:37:45.671Z,101669.30
2023-09-23T06:40:14.088Z,101670.32
2023-09-23T06:42:42.343Z,101668.98
2023-09-23T06:45:11.130Z,101669.94
2023-09-23T06:47:39.733Z,101671.08
2023-09-23T06:50:08.772Z,101671.31
2023-09-23T06:52:37.183Z,101674.96
2023-09-23T06:55:06.010Z,101676.16
2023-09-23T06:57:36.535Z,101675.99
2023-09-23T07:00:09.066Z,101676.64
2023-09-23T07:02:37.500Z,101674.13
2023-09-23T07:05:06.973Z,101672.84
2023-09-23T07:07:35.240Z,101676.89
2023-09-23T07:10:05.635Z,101680.32
2023-09-23T07:12:33.893Z,101682.34
2023-09-23T07:15:02.133Z,101686.33
2023-09-23T07:17:30.423Z,101688.46
2023-09-23T07:19:58.889Z,101692.80
2023-09-23T07:22:27.187Z,101695.09
2023-09-23T07:24:55.501Z,101695.96
2023-09-23T07:27:25.985Z,101695.51
2023-09-23T07:29:54.342Z,101690.86
2023-09-23T07:32:22.581Z,101691.08
2023-09-23T07:34:50.829Z,101696.91
2023-09-23T07:37:19.766Z,101706.66
2023-09-23T07:39:48.039Z,101707.58
2023-09-23T07:42:16.243Z,101709.77
2023-09-23T07:44:44.272Z,101713.45
2023-09-23T07:47:13.341Z,101708.95
2023-09-23T07:49:41.509Z,101709.74
2023-09-23T07:52:09.824Z,101713.99
2023-09-23T07:54:40.759Z,101712.67
2023-09-23T07:57:08.874Z,101717.38
2023-09-23T07:59:37.214Z,101713.96
2023-09-23T08:02:05.568Z,101712.63
2023-09-23T08:04:34.054Z,101717.84
2023-09-23T08:07:02.343Z,101721.60
2023-09-23T08:09:30.597Z,101720.83
2023-09-23T08:11:58.808Z,101720.55
2023-09-23T08:14:27.861Z,101716.58
2023-09-23T08:16:57.428Z,101715.00
2023-09-23T08:19:25.793Z,101716.31
2023-09-23T08:21:54.202Z,101717.40
2023-09-23T08:24:22.518Z,101718.25
2023-09-23T08:26:50.829Z,101720.41
2023-09-23T08:29:19.537Z,101720.91
2023-09-23T08:31:47.833Z,101722.34
2023-09-23T08:34:16.110Z,101722.03
2023-09-23T08:36:44.514Z,101720.27
2023-09-23T08:39:13.238Z,101723.99
2023-09-23T08:41:42.438Z,101723.44
2023-09-23T08:44:12.308Z,101720.05
2023-09-23T08:46:41.814Z,101723.21
2023-09-23T08:49:10.843Z,101722.04
2023-09-23T08:51:42.271Z,101723.02
2023-09-23T08:54:11.395Z,101717.10
2023-09-23T08:56:39.611Z,101716.54
2023-09-23T08:59:10.226Z,101716.45
2023-09-23T09:01:45.673Z,101711.61
2023-09-23T09:04:16.370Z,101709.92
2023-09-23T09:06:52.275Z,101707.92
2023-09-23T09:09:20.878Z,101711.55
2023-09-23T09:11:51.661Z,101706.54
2023-09-23T09:14:20.425Z,101706.81
2023-09-23T09:16:48.868Z,101709.91
2023-09-23T09:19:17.177Z,101718.71
2023-09-23T09:21:45.399Z,101714.33
2023-09-23T09:24:13.618Z,101709.84
2023-09-23T09:26:42.041Z,101707.35
2023-09-23T09:29:10.475Z,101712.45
2023-09-23T09:31:41.633Z,101719.84
2023-09-23T09:34:13.825Z,101718.45
2023-09-23T09:36:42.147Z,101722.25
2023-09-23T09:39:16.914Z,101719.55
2023-09-23T09:41:53.278Z,101720.69
2023-09-23T09:44:23.889Z,101720.75
2023-09-23T09:46:56.193Z,101721.13
2023-09-23T09:49:25.636Z,101720.47
2023-09-23T09:51:54.252Z,101721.67
2023-09-23T09:54:26.616Z,101718.73
2023-09-23T09:56:57.500Z,101721.02
2023-09-23T09:59:29.988Z,101719.46
2023-09-23T10:01:59.569Z,101710.70
2023-09-23T10:04:32.724Z,101711.08
2023-09-23T10:07:01.977Z,101714.36
2023-09-23T10:09:31.769Z,101715.17
2023-09-23T10:12:00.947Z,101716.63
2023-09-23T10:14:29.835Z,101713.05
2023-09-23T10:17:05.225Z,101711.14
2023-09-23T10:19:35.084Z,101709.98
2023-09-23T10:22:18.438Z,101714.94
2023-09-23T10:24:48.373Z,101711.66
2023-09-23T10:27:23.201Z,101709.09
2023-09-23T10:29:51.748Z,101706.96
2023-09-23T10:32:20.396Z,101705.76
2023-09-23T10:34:56.826Z,101704.67
2023-09-23T10:37:31.521Z,101703.22
2023-09-23T10:40:24.279Z,101704.98
2023-09-23T10:42:53.194Z,101703.04
2023-09-23T10:45:22.103Z,101701.98
2023-09-23T10:47:50.521Z,101693.37
2023-09-23T10:50:18.780Z,101685.83
2023-09-23T10:52:47.276Z,101690.64
2023-09-23T10:55:15.796Z,101691.48
2023-09-23T10:57:44.521Z,101688.59
2023-09-23T11:00:22.062Z,101687.23
2023-09-23T11:02:54.464Z,101681.37
2023-09-23T11:05:24.324Z,101681.89
2023-09-23T11:07:58.059Z,101680.20
2023-09-23T11:10:29.004Z,101677.14
2023-09-23T11:12:57.728Z,101674.52
2023-09-23T11:15:25.950Z,101672.55
2023-09-23T11:17:55.962Z,101673.21
2023-09-23T11:20:32.480Z,101674.05
2023-09-23T11:23:05.021Z,101675.83
2023-09-23T11:25:41.139Z,101672.73
2023-09-23T11:28:23.496Z,101666.33
2023-09-23T11:30:54.123Z,101661.83
2023-09-23T11:33:23.202Z,101663.23
2023-09-23T11:35:51.753Z,101662.03
2023-09-23T11:38:20.993Z,101662.05
2023-09-23T11:40:49.700Z,101660.30
2023-09-23T11:43:18.076Z,101659.61
2023-09-23T11:45:50.129Z,101656.89
2023-09-23T11:48:19.042Z,101654.98
2023-09-23T11:50:47.703Z,101649.94
2023-09-23T11:53:15.938Z,101653.05
2023-09-23T11:55:44.160Z,101653.30
2023-09-23T11:58:12.357Z,101653.72
2023-09-23T12:00:40.584Z,101652.50
2023-09-23T12:03:08.859Z,101651.98
2023-09-23T12:05:37.971Z,101646.44
2023-09-23T12:08:06.359Z,101644.38
2023-09-23T12:10:35.169Z,101648.95
2023-09-23T12:13:05.333Z,101653.44
2023-09-23T12:15:35.612Z,101652.20
2023-09-23T12:18:04.814Z,101650.55
2023-09-23T12:20:34.254Z,101657.36
2023-09-23T12:23:03.443Z,101659.48
2023-09-23T12:25:31.910Z,101657.52
2023-09-23T12:28:00.245Z,101651.33
2023-09-23T12:30:28.477Z,101651.18
2023-09-23T12:32:56.714Z,101649.23
2023-09-23T12:35:25.025Z,101653.30
2023-09-23T12:37:53.255Z,101649.92
2023-09-23T12:40:21.535Z,101648.66
2023-09-23T12:42:49.863Z,101650.50
2023-09-23T12:45:18.157Z,101651.59
2023-09-23T12:47:56.644Z,101652.48
2023-09-23T12:50:27.263Z,101649.23
2023-09-23T12:52:56.118Z,101648.89
2023-09-23T12:55:24.747Z,101647.21
2023-09-23T12:57:54.590Z,101647.21
2023-09-23T13:00:23.602Z,101641.77
2023-09-23T13:02:52.665Z,101635.55
2023-09-23T13:05:21.719Z,101630.40
2023-09-23T13:07:50.343Z,101627.85
2023-09-23T13:10:18.648Z,101626.10
2023-09-23T13:12:46.774Z,101623.97
2023-09-23T13:15:15.383Z,101620.73
2023-09-23T13:17:44.002Z,101617.69
2023-09-23T13:20:12.917Z,101612.21
2023-09-23T13:22:41.492Z,101613.27
2023-09-23T13:25:10.178Z,101610.09
2023-09-23T13:27:38.299Z,101605.94
2023-09-23T13:30:07.375Z,101608.52
2023-09-23T13:32:35.585Z,101607.21
2023-09-23T13:35:05.665Z,101607.11
2023-09-23T13:37:34.089Z,101609.61
2023-09-23T13:40:03.017Z,101611.11
2023-09-23T13:42:31.632Z,101611.98
2023-09-23T13:44:59.857Z,101613.48
2023-09-23T13:47:28.690Z,101613.27
2023-09-23T13:49:57.000Z,101614.88
2023-09-23T13:52:25.228Z,101614.50
2023-09-23T13:54:54.046Z,101614.53
2023-09-23T13:57:22.262Z,101610.31
2023-09-23T13:59:50.484Z,101614.52
2023-09-23T14:02:19.723Z,101613.50
2023-09-23T14:04:48.131Z,101612.16
2023-09-23T14:07:16.347Z,101610.17
2023-09-23T14:09:44.673Z,101605.64
2023-09-23T14:12:12.886Z,101605.01
2023-09-23T14:14:42.109Z,101607.56
2023-09-23T14:17:10.805Z,101603.77
2023-09-23T14:19:39.052Z,101602.05
2023-09-23T14:22:07.689Z,101603.29
2023-09-23T14:24:36.100Z,101605.38
2023-09-23T14:27:04.322Z,101602.39
2023-09-23T14:29:32.450Z,101602.37
2023-09-23T14:32:00.748Z,101597.95
2023-09-23T14:34:29.882Z,101596.86
2023-09-23T14:36:59.711Z,101594.76
2023-09-23T14:39:27.823Z,101597.94
2023-09-23T14:41:55.845Z,101598.76
2023-09-23T14:44:24.015Z,101594.81
2023-09-23T14:46:52.187Z,101590.83
2023-09-23T14:49:20.405Z,101591.37
2023-09-23T14:51:49.236Z,101592.98
2023-09-23T14:54:17.351Z,101598.08
2023-09-23T14:56:45.419Z,101598.01
2023-09-23T14:59:13.782Z,101598.65
2023-09-23T15:01:42.226Z,101595.74
2023-09-23T15:04:11.215Z,101595.73
2023-09-23T15:06:39.957Z,101593.16
2023-09-23T15:09:08.311Z,101594.48
2023-09-23T15:11:36.754Z,101593.75
2023-09-23T15:14:05.153Z,101593.83
2023-09-23T15:16:33.989Z,101594.27
2023-09-23T15:19:02.358Z,101595.21
2023-09-23T15:21:30.483Z,101590.31
2023-09-23T15:24:00.047Z,101591.70
2023-09-23T15:26:28.564Z,101587.75
2023-09-23T15:28:56.905Z,101590.08
2023-09-23T15:31:25.471Z,101590.27
2023-09-23T15:33:53.711Z,101592.08
2023-09-23T15:36:22.093Z,101593.83
2023-09-23T15:38:50.579Z,101597.84
2023-09-23T15:41:19.020Z,101599.49
2023-09-23T15:43:47.272Z,101599.83
2023-09-23T15:46:15.716Z,101601.20
2023-09-23T15:48:44.119Z,101603.73
2023-09-23T15:51:16.437Z,101600.42
2023-09-23T15:53:45.887Z,101599.90
2023-09-23T15:56:14.365Z,101598.35
2023-09-23T15:58:43.523Z,101596.00
2023-09-23T16:01:11.752Z,101593.39
2023-09-23T16:03:40.457Z,101590.45
2023-09-23T16:06:09.000Z,101587.25
2023-09-23T16:08:37.337Z,101588.55
2023-09-23T16:11:07.038Z,101588.39
2023-09-23T16:13:35.270Z,101590.23
2023-09-23T16:16:03.346Z,101593.04
2023-09-23T16:18:31.747Z,101597.30
2023-09-23T16:20:59.928Z,101594.98
2023-09-23T16:23:28.184Z,101597.75
2023-09-23T16:25:56.365Z,101596.77
2023-09-23T16:28:24.680Z,101598.19
2023-09-23T16:30:52.816Z,101596.33
2023-09-23T16:33:20.953Z,101598.90
2023-09-23T16:35:49.494Z,101600.38
2023-09-23T16:38:19.114Z,101602.61
2023-09-23T16:40:48.218Z,101605.34
2023-09-23T16:43:16.507Z,101603.74
2023-09-23T16:45:48.745Z,101600.00
2023-09-23T16:48:17.760Z,101602.61
2023-09-23T16:50:49.801Z,101602.11
2023-09-23T16:53:18.054Z,101605.30
2023-09-23T16:55:46.750Z,101605.50
2023-09-23T16:58:14.967Z,101608.78
2023-09-23T17:00:43.215Z,101610.86
2023-09-23T17:03:11.750Z,101611.58
2023-09-23T17:05:40.452Z,101615.56
2023-09-23T17:08:08.680Z,101616.40
2023-09-23T17:10:36.861Z,101620.95
2023-09-23T17:13:05.082Z,101628.48
2023-09-23T17:15:33.207Z,101625.44
2023-09-23T17:18:01.428Z,101622.64
2023-09-23T17:20:31.196Z,101625.95
2023-09-23T17:23:00.074Z,101629.98
2023-09-23T17:25:28.345Z,101633.04
2023-09-23T17:27:56.717Z,101635.23
2023-09-23T17:30:25.266Z,101637.61
2023-09-23T17:32:53.866Z,101632.21
2023-09-23T17:35:22.248Z,101629.11
2023-09-23T17:37:53.079Z,101633.95
2023-09-23T17:40:22.839Z,101635.80
2023-09-23T17:42:51.056Z,101638.04
2023-09-23T17:45:20.488Z,101639.85
2023-09-23T17:47:48.763Z,101636.06
2023-09-23T17:50:17.058Z,101638.64
2023-09-23T17:52:45.246Z,101634.98
2023-09-23T17:55:13.781Z,101632.73
2023-09-23T17:57:42.411Z,101637.32
2023-09-23T18:00:11.828Z,101641.52
2023-09-23T18:02:40.094Z,101642.70
2023-09-23T18:05:08.381Z,101645.45
2023-09-23T18:07:36.976Z,101645.90
2023-09-23T18:10:06.401Z,101644.23
2023-09-23T18:12:34.621Z,101644.23
2023-09-23T18:15:03.149Z,101644.68
2023-09-23T18:17:31.573Z,101644.75
2023-09-23T18:20:00.894Z,101640.05
2023-09-23T18:22:29.106Z,101635.74
2023-09-23T18:24:58.641Z,101634.16
2023-09-23T18:27:26.853Z,101639.31
2023-09-23T18:29:55.078Z,101637.04
2023-09-23T18:32:23.176Z,101639.98
2023-09-23T18:34:51.756Z,101647.02
2023-09-23T18:37:20.142Z,101645.24
2023-09-23T18:39:49.056Z,101648.56
2023-09-23T18:42:17.580Z,101651.19
2023-09-23T18:44:45.855Z,101654.73
2023-09-23T18:47:14.138Z,101657.72
2023-09-23T18:49:42.340Z,101660.11
2023-09-23T18:52:10.460Z,101660.66
2023-09-23T18:54:38.585Z,101662.05
2023-09-23T18:57:06.698Z,101663.33
2023-09-23T18:59:34.932Z,101660.73
2023-09-23T19:02:03.263Z,101665.40
2023-09-23T19:04:32.064Z,101670.21
2023-09-23T19:07:00.484Z,101671.61
2023-09-23T19:09:28.704Z,101664.34
2023-09-23T19:11:56.727Z,101665.33
2023-09-23T19:14:24.992Z,101667.27
2023-09-23T19:16:55.005Z,101665.27
2023-09-23T19:19:24.396Z,101661.79
2023-09-23T19:21:52.826Z,101664.45
2023-09-23T19:24:21.337Z,101661.66
2023-09-23T19:26:57.010Z,101662.80
2023-09-23T19:29:26.260Z,101664.58
2023-09-23T19:31:57.246Z,101667.52
2023-09-23T19:34:27.916Z,101659.95
2023-09-23T19:36:57.396Z,101658.52
2023-09-23T19:39:28.048Z,101660.54
2023-09-23T19:41:57.848Z,101659.21
2023-09-23T19:44:26.298Z,101662.98
2023-09-23T19:46:54.734Z,101663.83
2023-09-23T19:49:23.716Z,101667.16
2023-09-23T19:51:54.143Z,101667.96
2023-09-23T19:54:25.787Z,101665.95
2023-09-23T19:56:53.897Z,101664.27
2023-09-23T19:59:22.242Z,101660.25
2023-09-23T20:01:50.436Z,101660.08
2023-09-23T20:04:18.714Z,101659.41
2023-09-23T20:06:48.084Z,101655.14
2023-09-23T20:09:16.543Z,101658.31
2023-09-23T20:11:45.329Z,101664.55
2023-09-23T20:14:14.295Z,101661.88
2023-09-23T20:16:44.844Z,101669.08
2023-09-23T20:19:13.920Z,101666.02
2023-09-23T20:21:42.123Z,101660.31
2023-09-23T20:24:10.866Z,101658.70
2023-09-23T20:26:39.899Z,101656.67
2023-09-23T20:29:08.395Z,101654.64
2023-09-23T20:31:36.813Z,101653.23
2023-09-23T20:34:05.544Z,101646.08
2023-09-23T20:36:33.768Z,101644.30
2023-09-23T20:39:01.982Z,101644.14
2023-09-23T20:41:30.237Z,101643.87
2023-09-23T20:44:04.304Z,101638.91
2023-09-23T20:46:33.250Z,101638.76
2023-09-23T20:49:02.106Z,101639.94
2023-09-23T20:51:30.429Z,101639.47
2023-09-23T20:53:59.678Z,101640.23
2023-09-23T20:56:29.940Z,101635.81
2023-09-23T20:59:01.386Z,101633.48
2023-09-23T21:01:30.854Z,101630.61
2023-09-23T21:03:59.265Z,101629.60
2023-09-23T21:06:27.655Z,101626.30
2023-09-23T21:08:56.636Z,101617.55
2023-09-23T21:11:25.070Z,101620.61
2023-09-23T21:13:58.252Z,101617.14
2023-09-23T21:16:27.179Z,101615.55
2023-09-23T21:18:55.375Z,101609.46
2023-09-23T21:21:23.419Z,101603.74
2023-09-23T21:23:54.252Z,101600.80
2023-09-23T21:26:23.308Z,101601.60
2023-09-23T21:28:51.572Z,101599.36
2023-09-23T21:31:19.667Z,101598.23
2023-09-23T21:33:48.268Z,101600.18
2023-09-23T21:36:16.628Z,101604.82
2023-09-23T21:38:45.087Z,101603.92
2023-09-23T21:41:13.279Z,101601.06
2023-09-23T21:43:41.286Z,101600.45
2023-09-23T21:46:09.649Z,101599.61
2023-09-23T21:48:37.960Z,101598.05
2023-09-23T21:51:06.964Z,101594.44
2023-09-23T21:53:35.297Z,101589.67
2023-09-23T21:56:03.798Z,101582.80
2023-09-23T21:58:32.820Z,101582.21
2023-09-23T22:01:01.495Z,101584.67
2023-09-23T22:03:32.620Z,101579.00
2023-09-23T22:06:06.953Z,101577.20
2023-09-23T22:08:36.485Z,101577.55
2023-09-23T22:11:05.169Z,101573.23
2023-09-23T22:13:33.588Z,101568.39
2023-09-23T22:16:01.885Z,101561.84
2023-09-23T22:18:30.136Z,101564.37
2023-09-23T22:20:59.295Z,101565.50
2023-09-23T22:23:30.582Z,101567.29
2023-09-23T22:25:59.411Z,101567.59
2023-09-23T22:28:27.625Z,101569.15
2023-09-23T22:30:55.785Z,101568.99
2023-09-23T22:33:24.141Z,101567.25
2023-09-23T22:35:52.493Z,101565.40
2023-09-23T22:38:20.815Z,101567.30
2023-09-23T22:40:51.140Z,101567.29
2023-09-23T22:43:19.750Z,101566.28
2023-09-23T22:45:48.975Z,101566.70
2023-09-23T22:48:18.376Z,101564.93
2023-09-23T22:50:48.712Z,101560.80
2023-09-23T22:53:19.395Z,101559.48
2023-09-23T22:55:48.379Z,101561.60
2023-09-23T22:58:16.601Z,101556.66
2023-09-23T23:00:44.845Z,101560.98
2023-09-23T23:03:14.705Z,101564.56
2023-09-23T23:05:43.256Z,101559.89
2023-09-23T23:08:11.490Z,101557.33
2023-09-23T23:10:39.714Z,101553.94
2023-09-23T23:13:10.673Z,101559.33
2023-09-23T23:15:40.693Z,101557.52
2023-09-23T23:18:09.383Z,101560.14
2023-09-23T23:20:38.148Z,101561.41
2023-09-23T23:23:06.539Z,101558.82
2023-09-23T23:25:38.052Z,101556.73
2023-09-23T23:28:07.909Z,101550.50
2023-09-23T23:30:37.522Z,101547.50
2023-09-23T23:33:06.146Z,101546.11
2023-09-23T23:35:38.779Z,101550.95
2023-09-23T23:38:07.601Z,101549.05
2023-09-23T23:40:36.030Z,101545.06
2023-09-23T23:43:06.694Z,101538.41
2023-09-23T23:45:34.970Z,101541.42
2023-09-23T23:48:03.271Z,101542.11
2023-09-23T23:50:31.923Z,101547.33
2023-09-23T23:53:00.227Z,101551.00
2023-09-23T23:55:28.248Z,101552.59
2023-09-23T23:57:56.632Z,101547.96
